Time;durP1;ratioP1;P1;durP2;ratioP2;P2;SDS_P1;SDS_P2;PMS_P1;PMS_P2;Temp;Humidity;BMP_temperature;BMP_pressure;BME280_temperature;BME280_humidity;BME280_pressure;Samples;Min_cycle;Max_cycle;Signal;HPM_P1;HPM_P2
2024/01/16 00:00:46;;;;;;;5.00;2.20;;;3.00;99.90;;;;;;5038809;28;20300;-49
2024/01/16 00:03:16;;;;;;;4.20;2.17;;;3.00;99.90;;;;;;5042840;28;20266;-47
2024/01/16 00:05:47;;;;;;;2.55;1.38;;;3.00;99.90;;;;;;5045991;28;20733;-46
2024/01/16 00:08:16;;;;;;;4.10;1.77;;;2.90;99.90;;;;;;5047533;28;20223;-47
2024/01/16 00:10:45;;;;;;;5.05;2.05;;;3.00;99.90;;;;;;5047035;28;20319;-45
2024/01/16 00:13:17;;;;;;;3.10;1.80;;;3.00;99.90;;;;;;5047792;28;20734;-45
2024/01/16 00:15:47;;;;;;;2.92;1.83;;;3.00;99.90;;;;;;5043018;28;20216;-45
2024/01/16 00:18:33;;;;;;;2.65;1.50;;;3.00;99.90;;;;;;5048145;28;20207;-44
2024/01/16 00:21:10;;;;;;;3.55;1.67;;;3.00;99.90;;;;;;5047804;28;20228;-45
2024/01/16 00:23:39;;;;;;;3.58;1.73;;;3.00;99.90;;;;;;5044780;28;20684;-45
2024/01/16 00:26:07;;;;;;;2.80;1.92;;;3.00;99.90;;;;;;5050280;28;20263;-44
2024/01/16 00:28:38;;;;;;;2.45;1.55;;;3.00;99.90;;;;;;5047008;28;20201;-44
2024/01/16 00:31:08;;;;;;;3.05;1.40;;;3.00;99.90;;;;;;5046845;28;20225;-44
2024/01/16 00:33:38;;;;;;;4.47;2.13;;;3.00;99.90;;;;;;5044325;28;20685;-45
2024/01/16 00:36:10;;;;;;;3.35;1.83;;;2.90;99.90;;;;;;5046331;28;20270;-45
2024/01/16 00:38:44;;;;;;;1.95;1.20;;;2.90;99.90;;;;;;5044988;28;20708;-44
2024/01/16 00:41:15;;;;;;;4.97;1.80;;;3.00;99.90;;;;;;5042965;28;20228;-45
2024/01/16 00:43:45;;;;;;;2.22;1.52;;;3.00;99.90;;;;;;5045218;28;20207;-45
2024/01/16 00:46:14;;;;;;;3.17;1.58;;;3.00;99.90;;;;;;5041484;28;20217;-45
2024/01/16 00:48:43;;;;;;;3.42;1.70;;;3.00;99.90;;;;;;5043022;28;20215;-45
2024/01/16 00:51:12;;;;;;;3.15;1.73;;;3.00;99.90;;;;;;5046244;28;20270;-45
2024/01/16 00:53:45;;;;;;;2.00;1.40;;;3.00;99.90;;;;;;5039551;28;20196;-45
2024/01/16 00:56:15;;;;;;;2.65;1.73;;;3.00;99.90;;;;;;5030479;28;20217;-44
2024/01/16 00:58:55;;;;;;;3.65;1.88;;;3.00;99.90;;;;;;5039658;28;20197;-44
2024/01/16 01:01:24;;;;;;;2.78;1.40;;;3.00;99.90;;;;;;5023841;28;20224;-45
2024/01/16 01:03:56;;;;;;;2.88;2.00;;;3.00;99.90;;;;;;5043592;28;20560;-45
2024/01/16 01:06:25;;;;;;;3.45;2.00;;;2.90;99.90;;;;;;5042432;28;20212;-45
2024/01/16 01:09:00;;;;;;;2.40;1.45;;;3.00;99.90;;;;;;5033700;28;20211;-45
2024/01/16 01:11:29;;;;;;;2.53;1.60;;;3.00;99.90;;;;;;5050639;28;20712;-45
2024/01/16 01:13:59;;;;;;;2.33;1.30;;;2.90;99.90;;;;;;5044285;28;20193;-45
2024/01/16 01:16:42;;;;;;;4.78;1.80;;;2.90;99.90;;;;;;5045668;28;20220;-45
2024/01/16 01:19:12;;;;;;;4.07;2.30;;;2.90;99.90;;;;;;5041952;28;20527;-45
2024/01/16 01:21:56;;;;;;;1.70;1.50;;;3.00;99.90;;;;;;5032241;28;20217;-44
2024/01/16 01:24:25;;;;;;;2.60;1.50;;;2.90;99.90;;;;;;5017318;28;20208;-45
2024/01/16 01:26:54;;;;;;;3.60;1.50;;;3.00;99.90;;;;;;5039460;28;20306;-45
2024/01/16 01:29:26;;;;;;;4.55;1.98;;;3.00;99.90;;;;;;5027547;28;20221;-45
2024/01/16 01:32:07;;;;;;;3.13;1.40;;;3.00;99.90;;;;;;5040319;28;20307;-45
2024/01/16 01:34:48;;;;;;;3.28;1.60;;;3.00;99.90;;;;;;5029043;28;20203;-45
2024/01/16 01:37:18;;;;;;;3.35;1.85;;;2.90;99.90;;;;;;5044478;28;20207;-45
2024/01/16 01:39:52;;;;;;;3.30;2.20;;;2.90;99.90;;;;;;5044691;28;20200;-45
2024/01/16 01:42:25;;;;;;;1.95;1.42;;;2.90;99.90;;;;;;5047587;28;20274;-45
2024/01/16 01:45:09;;;;;;;4.15;1.95;;;3.00;99.90;;;;;;5042237;28;20276;-45
2024/01/16 01:47:38;;;;;;;3.92;2.13;;;2.90;99.90;;;;;;5035265;28;20244;-44
2024/01/16 01:50:21;;;;;;;4.30;1.98;;;2.90;99.90;;;;;;5041928;28;20615;-45
2024/01/16 01:53:03;;;;;;;3.08;1.67;;;2.90;99.90;;;;;;5046324;28;20571;-46
2024/01/16 01:55:34;;;;;;;2.90;1.70;;;2.90;99.90;;;;;;5027291;28;20681;-46
2024/01/16 01:58:18;;;;;;;2.60;1.92;;;2.90;99.90;;;;;;5043176;28;20215;-48
2024/01/16 02:01:03;;;;;;;2.30;1.60;;;2.90;99.90;;;;;;5041388;28;20254;-47
2024/01/16 02:03:56;;;;;;;4.65;2.28;;;2.90;99.90;;;;;;5046787;28;20203;-46
2024/01/16 02:06:25;;;;;;;3.10;1.33;;;2.90;99.90;;;;;;5044176;28;20601;-47
2024/01/16 02:08:56;;;;;;;4.63;2.30;;;2.90;99.90;;;;;;5046266;28;20709;-47
2024/01/16 02:11:38;;;;;;;2.50;1.33;;;2.90;99.90;;;;;;5042917;28;20502;-48
2024/01/16 02:14:18;;;;;;;3.65;2.47;;;2.90;99.90;;;;;;5033964;28;20199;-47
2024/01/16 02:17:03;;;;;;;1.90;1.67;;;3.00;99.90;;;;;;5044787;28;20600;-47
2024/01/16 02:19:37;;;;;;;2.65;1.50;;;3.00;99.90;;;;;;5049041;28;20271;-47
2024/01/16 02:22:23;;;;;;;4.07;2.00;;;3.00;99.90;;;;;;5040139;28;20445;-46
2024/01/16 02:25:10;;;;;;;5.13;1.60;;;2.90;99.90;;;;;;5046337;28;20197;-47
2024/01/16 02:27:47;;;;;;;5.78;1.88;;;3.00;99.90;;;;;;5047712;28;20318;-46
2024/01/16 02:30:18;;;;;;;3.28;1.80;;;2.90;99.90;;;;;;5040344;28;20235;-48
2024/01/16 02:32:50;;;;;;;2.78;1.60;;;2.90;99.90;;;;;;5043603;28;20212;-47
2024/01/16 02:35:49;;;;;;;3.40;1.88;;;2.90;99.90;;;;;;5023603;28;20710;-51
2024/01/16 02:38:32;;;;;;;3.05;1.77;;;2.90;99.90;;;;;;5033890;28;20189;-47
2024/01/16 02:41:05;;;;;;;2.35;1.60;;;2.90;99.90;;;;;;5039367;28;20274;-49
2024/01/16 02:43:43;;;;;;;1.77;1.33;;;2.90;99.90;;;;;;5047693;28;20207;-48
2024/01/16 02:46:19;;;;;;;2.28;1.65;;;3.00;99.90;;;;;;5029459;28;20298;-47
2024/01/16 02:49:00;;;;;;;3.90;2.40;;;2.90;99.90;;;;;;5042535;28;20192;-48
2024/01/16 02:51:55;;;;;;;2.55;1.73;;;2.90;99.90;;;;;;5026509;28;20221;-48
2024/01/16 02:54:27;;;;;;;2.55;1.35;;;2.90;99.90;;;;;;5040076;28;20201;-47
2024/01/16 02:57:28;;;;;;;2.72;1.60;;;2.90;99.90;;;;;;5042351;28;20215;-47
2024/01/16 03:00:11;;;;;;;3.95;1.70;;;2.90;99.90;;;;;;5045205;28;20190;-48
2024/01/16 03:03:04;;;;;;;2.65;1.70;;;2.90;99.90;;;;;;5040325;28;20225;-46
2024/01/16 03:05:51;;;;;;;2.60;1.75;;;2.90;99.90;;;;;;5042335;28;20217;-46
2024/01/16 03:08:43;;;;;;;3.80;1.77;;;2.90;99.90;;;;;;5027289;28;20196;-46
2024/01/16 03:11:43;;;;;;;2.80;1.50;;;2.90;99.90;;;;;;5033598;28;20299;-46
2024/01/16 03:14:21;;;;;;;2.33;1.48;;;2.90;99.90;;;;;;5045129;28;20276;-47
2024/01/16 03:16:51;;;;;;;2.05;1.35;;;2.90;99.90;;;;;;5049576;28;20605;-46
2024/01/16 03:22:08;;;;;;;2.80;1.73;;;2.90;99.90;;;;;;5044232;28;20216;-45
2024/01/16 03:24:45;;;;;;;3.00;1.70;;;2.90;99.90;;;;;;5050188;28;20208;-48
2024/01/16 03:30:23;;;;;;;4.45;1.88;;;2.90;99.90;;;;;;5051141;28;20232;-47
2024/01/16 03:33:02;;;;;;;2.70;1.60;;;2.90;99.90;;;;;;5055856;28;20223;-47
2024/01/16 03:42:40;;;;;;;3.15;1.60;;;3.00;99.90;;;;;;5039742;28;20262;-47
2024/01/16 03:45:25;;;;;;;2.15;1.35;;;2.90;99.90;;;;;;5033376;28;20193;-47
2024/01/16 03:55:13;;;;;;;3.00;1.50;;;2.90;99.90;;;;;;4977747;28;20201;-46
2024/01/16 04:07:06;;;;;;;3.10;1.35;;;2.90;99.90;;;;;;5041366;28;20219;-46
2024/01/16 04:10:27;;;;;;;3.53;1.83;;;2.90;99.90;;;;;;5053343;28;20212;-47
2024/01/16 04:13:19;;;;;;;2.88;1.67;;;2.90;99.90;;;;;;5032817;28;20231;-46
2024/01/16 04:15:55;;;;;;;3.38;1.83;;;2.90;99.90;;;;;;5038195;28;20718;-46
2024/01/16 04:18:50;;;;;;;3.83;2.13;;;2.90;99.90;;;;;;5045773;28;20205;-48
2024/01/16 04:22:16;;;;;;;2.00;1.10;;;2.90;99.90;;;;;;5002915;28;20295;-47
2024/01/16 04:28:23;;;;;;;2.83;1.30;;;2.90;99.90;;;;;;4931054;28;20214;-46
2024/01/16 04:34:10;;;;;;;2.38;0.90;;;2.90;99.90;;;;;;5018035;28;20570;-47
2024/01/16 04:36:46;;;;;;;3.03;1.83;;;2.90;99.90;;;;;;5036006;28;20276;-46
2024/01/16 04:42:55;;;;;;;2.15;1.38;;;2.90;99.90;;;;;;5026355;28;20240;-48
2024/01/16 04:45:37;;;;;;;5.60;1.98;;;2.90;99.90;;;;;;5046368;28;20219;-48
2024/01/16 04:48:31;;;;;;;4.25;1.70;;;2.90;99.90;;;;;;5014460;28;20197;-48
2024/01/16 04:51:21;;;;;;;3.10;1.48;;;2.90;99.90;;;;;;5038980;28;20705;-47
2024/01/16 04:53:58;;;;;;;4.97;2.10;;;2.90;99.90;;;;;;5047809;28;20745;-47
2024/01/16 05:03:54;;;;;;;4.00;1.40;;;2.90;99.90;;;;;;4934980;29;20756;-48
2024/01/16 05:13:48;;;;;;;2.90;1.70;;;2.90;99.90;;;;;;4981286;28;20221;-47
2024/01/16 05:16:52;;;;;;;3.70;1.90;;;2.90;99.90;;;;;;5031998;28;20701;-47
2024/01/16 05:20:12;;;;;;;5.80;1.67;;;2.90;99.90;;;;;;5039764;28;20199;-47
2024/01/16 05:27:02;;;;;;;1.65;1.25;;;2.90;99.90;;;;;;5048936;28;20216;-48
2024/01/16 05:32:42;;;;;;;3.17;1.30;;;2.90;99.90;;;;;;5028633;28;20220;-47
2024/01/16 05:35:12;;;;;;;2.53;1.58;;;2.90;99.90;;;;;;5030080;28;20666;-47
2024/01/16 05:37:41;;;;;;;4.85;1.98;;;2.90;99.90;;;;;;5042841;28;20228;-47
2024/01/16 05:40:11;;;;;;;2.55;1.48;;;2.90;99.90;;;;;;5047767;28;20197;-47
2024/01/16 05:42:40;;;;;;;2.13;1.30;;;2.90;99.90;;;;;;5044776;28;20224;-46
2024/01/16 05:45:10;;;;;;;2.20;1.40;;;2.90;99.90;;;;;;5048268;28;20201;-45
2024/01/16 05:47:38;;;;;;;1.83;1.25;;;2.90;99.90;;;;;;5046824;28;20220;-46
2024/01/16 05:50:09;;;;;;;2.53;1.50;;;2.90;99.90;;;;;;5049513;28;20202;-47
2024/01/16 05:52:40;;;;;;;3.28;1.25;;;2.90;99.90;;;;;;5030963;28;20228;-47
2024/01/16 05:55:12;;;;;;;3.83;1.83;;;2.90;99.90;;;;;;5047266;28;20203;-47
2024/01/16 05:57:41;;;;;;;4.45;1.65;;;2.90;99.90;;;;;;5047809;28;20308;-47
2024/01/16 06:00:13;;;;;;;3.10;1.45;;;2.90;99.90;;;;;;5048533;28;20685;-48
2024/01/16 06:02:43;;;;;;;3.33;1.35;;;2.90;99.90;;;;;;5043655;28;20221;-46
2024/01/16 06:05:12;;;;;;;4.80;1.80;;;2.90;99.90;;;;;;5041108;28;20189;-48
2024/01/16 06:07:41;;;;;;;2.47;1.80;;;2.90;99.90;;;;;;5044365;28;20225;-46
2024/01/16 06:10:13;;;;;;;3.38;1.80;;;2.90;99.90;;;;;;5030086;28;20231;-46
2024/01/16 06:12:42;;;;;;;5.18;1.60;;;2.90;99.90;;;;;;5043334;28;20244;-46
2024/01/16 06:15:12;;;;;;;3.45;1.60;;;2.90;99.90;;;;;;5039247;28;20204;-48
2024/01/16 06:17:40;;;;;;;4.53;1.70;;;2.90;99.90;;;;;;5044092;28;20231;-47
2024/01/16 06:20:12;;;;;;;3.65;1.35;;;2.90;99.90;;;;;;5023918;28;20189;-45
2024/01/16 06:22:40;;;;;;;2.20;1.40;;;2.90;99.90;;;;;;5031553;28;20575;-47
2024/01/16 06:25:09;;;;;;;5.18;1.83;;;2.90;99.90;;;;;;5046284;28;20199;-47
2024/01/16 06:27:38;;;;;;;2.65;1.50;;;2.90;99.90;;;;;;5044587;28;20252;-46
2024/01/16 06:30:08;;;;;;;3.67;1.92;;;2.80;99.90;;;;;;5031366;28;20204;-46
2024/01/16 06:32:38;;;;;;;4.68;1.50;;;2.90;99.90;;;;;;5043616;28;20598;-48
2024/01/16 06:35:09;;;;;;;2.05;1.40;;;2.90;99.90;;;;;;5048055;28;20196;-48
2024/01/16 06:37:42;;;;;;;2.80;1.83;;;2.80;99.90;;;;;;5047010;28;20955;-45
2024/01/16 06:40:13;;;;;;;3.78;1.70;;;2.90;99.90;;;;;;5038576;28;20840;-47
2024/01/16 06:42:42;;;;;;;2.25;1.30;;;2.90;99.90;;;;;;5027506;28;20220;-48
2024/01/16 06:45:12;;;;;;;2.05;1.38;;;2.90;99.90;;;;;;5045201;28;20193;-47
2024/01/16 06:47:42;;;;;;;2.20;1.25;;;2.90;99.90;;;;;;5046139;28;20224;-47
2024/01/16 06:50:11;;;;;;;2.17;1.20;;;2.90;99.90;;;;;;5040914;28;20201;-46
2024/01/16 06:52:40;;;;;;;2.60;1.10;;;2.90;99.90;;;;;;5045648;28;20239;-47
2024/01/16 06:55:09;;;;;;;2.85;1.35;;;2.90;99.90;;;;;;5047402;28;20208;-46
2024/01/16 06:57:38;;;;;;;2.50;1.38;;;2.90;99.90;;;;;;5041515;28;20224;-49
2024/01/16 07:00:09;;;;;;;2.40;1.63;;;2.90;99.90;;;;;;5045985;28;20283;-49
2024/01/16 07:02:37;;;;;;;3.45;1.45;;;2.90;99.90;;;;;;5046318;28;20229;-47
2024/01/16 07:05:09;;;;;;;2.60;1.30;;;2.90;99.90;;;;;;5043072;28;20476;-46
2024/01/16 07:07:41;;;;;;;2.63;1.50;;;2.90;99.90;;;;;;5046020;28;20228;-47
2024/01/16 07:10:17;;;;;;;4.22;1.50;;;2.90;99.90;;;;;;5044618;28;20735;-47
2024/01/16 07:12:49;;;;;;;2.33;1.20;;;2.90;99.90;;;;;;5045346;28;20216;-50
2024/01/16 07:15:22;;;;;;;2.30;1.60;;;2.90;99.90;;;;;;5039723;28;20292;-47
2024/01/16 07:17:52;;;;;;;3.47;1.30;;;2.90;99.90;;;;;;5040070;28;20231;-47
2024/01/16 07:20:23;;;;;;;2.40;1.15;;;2.90;99.90;;;;;;5045047;28;20654;-46
2024/01/16 07:22:52;;;;;;;1.80;1.30;;;2.80;99.90;;;;;;5036969;28;20675;-47
2024/01/16 07:25:23;;;;;;;2.58;2.05;;;2.90;99.90;;;;;;5042025;28;20291;-46
2024/01/16 07:27:54;;;;;;;2.38;1.25;;;2.90;99.90;;;;;;5042209;28;20278;-47
2024/01/16 07:30:24;;;;;;;1.65;1.30;;;2.90;99.90;;;;;;5045231;28;20276;-45
2024/01/16 07:32:53;;;;;;;2.58;1.33;;;2.90;99.90;;;;;;5041265;28;20217;-45
2024/01/16 07:35:28;;;;;;;2.50;1.52;;;2.90;99.90;;;;;;5043832;28;20561;-44
2024/01/16 07:38:01;;;;;;;2.15;1.35;;;2.90;99.90;;;;;;5045119;28;20325;-45
2024/01/16 07:40:34;;;;;;;2.30;1.58;;;2.90;99.90;;;;;;5045472;28;20207;-45
2024/01/16 07:43:04;;;;;;;1.52;0.95;;;2.90;99.90;;;;;;5045281;28;20255;-45
2024/01/16 07:45:36;;;;;;;3.78;1.20;;;2.90;99.90;;;;;;5041474;28;20203;-45
2024/01/16 07:48:14;;;;;;;3.90;1.10;;;2.90;99.90;;;;;;5029375;28;20206;-45
2024/01/16 07:50:55;;;;;;;2.40;1.50;;;2.80;99.90;;;;;;5022616;28;20755;-45
2024/01/16 07:53:30;;;;;;;3.05;0.90;;;2.90;99.90;;;;;;5046385;28;20296;-45
2024/01/16 07:56:04;;;;;;;2.65;1.75;;;2.90;99.90;;;;;;5046403;28;20213;-44
2024/01/16 07:58:35;;;;;;;4.43;1.35;;;2.90;99.90;;;;;;5049239;28;20216;-45
2024/01/16 08:01:05;;;;;;;2.92;1.35;;;2.90;99.90;;;;;;5047918;28;20298;-45
2024/01/16 08:03:35;;;;;;;4.40;1.25;;;2.90;99.90;;;;;;5050894;28;20189;-45
2024/01/16 08:06:06;;;;;;;3.28;1.35;;;2.90;99.90;;;;;;5049120;28;20213;-45
2024/01/16 08:08:35;;;;;;;2.22;1.15;;;2.90;99.90;;;;;;5051330;28;20666;-45
2024/01/16 08:11:10;;;;;;;2.67;1.48;;;2.90;99.90;;;;;;5051092;28;20594;-45
2024/01/16 08:13:45;;;;;;;2.30;1.33;;;2.90;99.90;;;;;;5045370;28;20224;-44
2024/01/16 08:16:24;;;;;;;7.43;4.07;;;2.90;99.90;;;;;;5044091;28;20212;-45
2024/01/16 08:19:04;;;;;;;5.80;2.28;;;2.80;98.90;;;;;;5048540;28;20204;-45
2024/01/16 08:21:43;;;;;;;7.25;2.60;;;2.70;98.40;;;;;;5050798;28;20314;-45
2024/01/16 08:24:24;;;;;;;9.13;2.70;;;2.60;98.20;;;;;;5045229;28;20196;-45
2024/01/16 08:26:53;;;;;;;5.97;2.15;;;2.60;98.00;;;;;;5048271;28;20702;-45
2024/01/16 08:29:28;;;;;;;6.30;2.65;;;2.50;98.30;;;;;;5049850;28;20543;-45
2024/01/16 08:32:08;;;;;;;6.57;2.50;;;2.50;98.40;;;;;;5049266;28;20244;-45
2024/01/16 08:34:37;;;;;;;7.45;2.10;;;2.60;99.20;;;;;;5050549;28;20199;-45
2024/01/16 08:37:09;;;;;;;4.45;2.28;;;2.60;99.30;;;;;;5049661;28;20736;-45
2024/01/16 08:39:40;;;;;;;4.55;2.03;;;2.60;99.30;;;;;;5049190;28;20201;-45
2024/01/16 08:42:11;;;;;;;5.05;2.28;;;2.70;99.30;;;;;;5031385;28;20259;-44
2024/01/16 08:44:42;;;;;;;3.88;2.25;;;2.70;99.40;;;;;;5048934;28;20196;-45
2024/01/16 08:47:12;;;;;;;7.00;2.03;;;2.70;99.40;;;;;;5026433;28;20220;-43
2024/01/16 08:49:43;;;;;;;5.43;1.90;;;2.70;99.90;;;;;;5047455;28;20283;-45
2024/01/16 08:52:17;;;;;;;4.80;1.80;;;2.70;99.50;;;;;;5045570;28;20216;-45
2024/01/16 08:54:46;;;;;;;5.75;1.92;;;2.70;99.60;;;;;;5047498;28;20619;-45
2024/01/16 08:57:14;;;;;;;4.95;1.70;;;2.70;99.60;;;;;;5048490;28;20212;-45
2024/01/16 08:59:47;;;;;;;5.32;2.50;;;2.80;99.60;;;;;;5047967;28;20674;-45
2024/01/16 09:02:16;;;;;;;4.05;2.15;;;2.80;99.70;;;;;;5047656;28;20208;-45
2024/01/16 09:04:50;;;;;;;2.95;1.60;;;2.80;99.70;;;;;;5043660;28;20295;-45
2024/01/16 09:07:23;;;;;;;4.95;1.70;;;2.80;99.60;;;;;;5045228;28;20220;-45
2024/01/16 09:09:54;;;;;;;4.63;1.85;;;2.80;99.60;;;;;;5029003;28;20305;-45
2024/01/16 09:12:26;;;;;;;3.88;2.00;;;2.80;99.90;;;;;;5042108;28;20228;-45
2024/01/16 09:14:56;;;;;;;4.95;1.73;;;2.80;99.80;;;;;;5032241;28;20207;-45
2024/01/16 09:17:33;;;;;;;4.65;1.80;;;2.80;99.70;;;;;;5045679;28;20517;-45
2024/01/16 09:20:06;;;;;;;5.97;2.08;;;2.80;99.80;;;;;;5044715;28;20693;-44
2024/01/16 09:22:37;;;;;;;3.25;1.77;;;2.80;99.70;;;;;;5039054;28;20221;-44
2024/01/16 09:25:07;;;;;;;4.80;1.60;;;2.90;99.70;;;;;;5048945;28;20678;-45
2024/01/16 09:27:36;;;;;;;4.50;1.60;;;2.80;99.70;;;;;;5031078;28;20231;-45
2024/01/16 09:30:12;;;;;;;4.30;1.60;;;2.90;99.70;;;;;;5048441;28;20205;-45
2024/01/16 09:32:42;;;;;;;3.60;1.77;;;2.90;99.80;;;;;;5047150;28;20310;-45
2024/01/16 09:35:25;;;;;;;2.83;1.80;;;2.90;99.80;;;;;;5017675;28;20722;-45
2024/01/16 09:37:59;;;;;;;3.75;1.60;;;2.80;99.80;;;;;;5047209;28;20224;-48
2024/01/16 09:40:28;;;;;;;4.53;2.20;;;2.90;99.80;;;;;;5047892;28;20181;-48
2024/01/16 09:42:57;;;;;;;4.10;2.13;;;2.90;99.80;;;;;;5049274;28;20279;-47
2024/01/16 09:45:28;;;;;;;4.13;1.70;;;2.90;99.80;;;;;;5044363;28;20200;-48
2024/01/16 09:47:58;;;;;;;2.35;1.58;;;2.90;99.70;;;;;;5048613;28;20217;-46
2024/01/16 09:50:27;;;;;;;4.38;1.45;;;2.90;99.90;;;;;;5048932;28;20181;-48
2024/01/16 09:53:02;;;;;;;3.80;1.20;;;2.90;99.70;;;;;;5047666;28;20223;-46
2024/01/16 09:55:30;;;;;;;5.25;1.20;;;2.90;99.70;;;;;;5049900;28;20203;-48
2024/01/16 09:58:03;;;;;;;2.88;1.90;;;2.90;99.80;;;;;;5047860;28;20216;-46
2024/01/16 10:00:34;;;;;;;6.40;3.13;;;2.90;99.90;;;;;;5030631;28;20204;-53
2024/01/16 10:03:05;;;;;;;2.95;1.15;;;2.90;99.80;;;;;;5048835;28;20723;-47
2024/01/16 10:05:47;;;;;;;3.05;1.88;;;2.90;99.90;;;;;;5027485;28;20551;-48
2024/01/16 10:08:21;;;;;;;3.83;1.50;;;3.00;99.80;;;;;;5040243;28;20220;-47
2024/01/16 10:10:55;;;;;;;4.03;1.38;;;3.00;99.80;;;;;;5044530;28;20264;-48
2024/01/16 10:13:24;;;;;;;2.67;1.20;;;2.90;99.80;;;;;;5044494;28;20209;-47
2024/01/16 10:15:55;;;;;;;2.45;1.25;;;2.90;99.80;;;;;;5027793;28;20220;-47
2024/01/16 10:18:25;;;;;;;6.15;2.05;;;2.90;99.70;;;;;;5045525;28;20613;-46
2024/01/16 10:20:55;;;;;;;3.58;1.80;;;2.90;99.80;;;;;;5043829;28;20225;-47
2024/01/16 10:23:27;;;;;;;2.83;1.30;;;2.90;99.80;;;;;;5047839;28;20185;-47
2024/01/16 10:26:09;;;;;;;3.45;2.10;;;2.90;99.80;;;;;;5047241;28;20228;-47
2024/01/16 10:28:41;;;;;;;4.28;1.70;;;2.90;99.90;;;;;;5048831;28;20224;-48
2024/01/16 10:31:13;;;;;;;3.85;1.27;;;2.90;99.80;;;;;;5045555;28;20227;-46
2024/01/16 10:33:42;;;;;;;5.78;1.55;;;2.90;99.90;;;;;;5041970;28;20236;-45
2024/01/16 10:36:16;;;;;;;2.95;1.10;;;2.90;99.80;;;;;;5042622;28;20259;-46
2024/01/16 10:38:54;;;;;;;3.00;1.40;;;3.00;99.70;;;;;;5047804;28;20280;-48
2024/01/16 10:41:25;;;;;;;2.10;1.15;;;3.00;99.90;;;;;;5040022;28;20303;-46
2024/01/16 10:44:04;;;;;;;3.72;1.45;;;3.00;99.90;;;;;;5044428;28;20566;-45
2024/01/16 10:46:33;;;;;;;2.58;1.35;;;3.00;99.90;;;;;;5042269;28;20220;-44
2024/01/16 10:49:03;;;;;;;4.38;1.38;;;3.00;99.80;;;;;;5045757;28;20185;-47
2024/01/16 10:51:33;;;;;;;3.10;1.27;;;3.00;99.80;;;;;;5042556;28;20228;-45
2024/01/16 10:54:05;;;;;;;1.90;1.00;;;3.00;99.80;;;;;;5040930;28;20227;-45
2024/01/16 10:56:34;;;;;;;4.35;1.80;;;3.00;99.80;;;;;;5046899;28;20220;-45
2024/01/16 10:59:11;;;;;;;2.20;1.13;;;3.00;99.80;;;;;;5047366;28;20187;-46
2024/01/16 11:01:40;;;;;;;2.33;1.13;;;3.00;99.80;;;;;;5045156;28;20232;-47
2024/01/16 11:04:09;;;;;;;2.58;1.60;;;3.00;99.80;;;;;;5048520;28;20215;-45
2024/01/16 11:06:42;;;;;;;4.30;1.48;;;3.00;99.80;;;;;;5048326;28;20216;-45
2024/01/16 11:09:15;;;;;;;3.42;1.20;;;3.00;99.80;;;;;;5038164;28;20219;-44
2024/01/16 11:11:45;;;;;;;3.45;1.60;;;2.90;99.90;;;;;;5041402;28;20699;-46
2024/01/16 11:14:15;;;;;;;2.35;1.15;;;2.90;99.80;;;;;;5041095;28;20287;-46
2024/01/16 11:16:50;;;;;;;2.53;1.38;;;2.90;99.80;;;;;;5045687;28;20226;-46
2024/01/16 11:19:20;;;;;;;2.60;1.40;;;2.90;99.90;;;;;;5045258;28;20188;-46
2024/01/16 11:22:09;;;;;;;6.82;1.92;;;3.00;99.90;;;;;;5029588;28;20228;-47
2024/01/16 11:24:40;;;;;;;2.95;1.85;;;3.00;99.90;;;;;;5047758;28;20192;-46
2024/01/16 11:27:09;;;;;;;3.40;2.08;;;2.90;99.90;;;;;;5047748;28;20625;-47
2024/01/16 11:29:38;;;;;;;2.40;1.50;;;3.00;99.80;;;;;;5041513;28;20197;-47
2024/01/16 11:32:07;;;;;;;2.20;1.20;;;2.90;99.80;;;;;;5046784;28;20228;-45
2024/01/16 11:34:57;;;;;;;3.15;1.55;;;3.00;99.90;;;;;;5051584;28;20212;-44
2024/01/16 11:37:28;;;;;;;4.65;1.92;;;2.90;99.90;;;;;;5051096;28;20224;-48
2024/01/16 11:40:25;;;;;;;4.50;1.48;;;3.00;99.90;;;;;;5046971;28;20254;-46
2024/01/16 11:42:56;;;;;;;4.03;1.75;;;3.00;99.90;;;;;;5050895;28;20216;-46
2024/01/16 11:45:51;;;;;;;3.83;1.60;;;3.00;99.90;;;;;;5050761;28;20189;-45
2024/01/16 11:48:23;;;;;;;3.20;1.33;;;2.90;99.80;;;;;;5045435;28;20212;-46
2024/01/16 11:50:53;;;;;;;2.35;1.58;;;3.00;99.90;;;;;;5050470;28;20236;-48
2024/01/16 11:53:40;;;;;;;3.63;1.40;;;3.00;99.90;;;;;;5046872;28;20193;-46
2024/01/16 11:56:59;;;;;;;1.92;1.10;;;3.00;99.90;;;;;;5029808;28;20608;-43
2024/01/16 11:59:49;;;;;;;1.50;1.10;;;3.00;99.90;;;;;;5044837;28;20192;-45
2024/01/16 12:02:27;;;;;;;3.55;2.03;;;3.00;99.90;;;;;;5049470;28;20220;-46
2024/01/16 12:04:58;;;;;;;2.20;1.45;;;3.00;99.90;;;;;;5033804;28;20272;-43
2024/01/16 12:07:28;;;;;;;2.53;1.55;;;3.00;99.90;;;;;;5047934;28;20217;-45
2024/01/16 12:10:06;;;;;;;3.13;1.40;;;2.90;99.90;;;;;;5050973;28;20208;-44
2024/01/16 12:12:37;;;;;;;3.33;1.65;;;3.00;99.90;;;;;;5052877;28;20220;-43
2024/01/16 12:15:07;;;;;;;4.43;2.50;;;2.90;99.90;;;;;;5051586;28;20217;-44
2024/01/16 12:17:36;;;;;;;2.70;1.70;;;3.00;99.90;;;;;;5050704;28;20724;-44
2024/01/16 12:20:17;;;;;;;5.13;1.88;;;3.00;99.90;;;;;;5052365;28;20185;-43
2024/01/16 12:22:47;;;;;;;2.17;1.15;;;3.00;99.90;;;;;;5050064;28;20224;-44
2024/01/16 12:25:21;;;;;;;3.33;1.40;;;3.00;99.90;;;;;;5051414;28;20268;-44
2024/01/16 12:27:58;;;;;;;4.68;1.85;;;3.00;99.90;;;;;;5041773;28;20216;-43
2024/01/16 12:30:29;;;;;;;1.90;1.25;;;3.00;99.90;;;;;;5051498;28;20211;-45
2024/01/16 12:33:08;;;;;;;3.65;1.77;;;3.00;99.90;;;;;;5051473;28;20608;-45
2024/01/16 12:35:42;;;;;;;2.05;1.30;;;3.00;99.90;;;;;;5051142;28;20212;-45
2024/01/16 12:38:12;;;;;;;2.75;1.27;;;3.00;99.90;;;;;;5051721;28;20197;-43
2024/01/16 12:40:43;;;;;;;2.45;1.30;;;3.00;99.90;;;;;;5049384;28;20218;-45
2024/01/16 12:43:12;;;;;;;2.58;1.23;;;3.00;99.80;;;;;;5049621;28;20203;-47
2024/01/16 12:45:40;;;;;;;2.55;1.45;;;3.00;99.90;;;;;;5042928;28;20204;-44
2024/01/16 12:48:08;;;;;;;2.72;1.00;;;3.00;99.90;;;;;;5050468;28;20601;-47
2024/01/16 12:50:37;;;;;;;3.35;1.73;;;3.00;99.90;;;;;;5050215;28;20196;-46
2024/01/16 12:53:06;;;;;;;2.65;1.50;;;3.00;99.90;;;;;;5050225;28;20634;-45
2024/01/16 12:55:36;;;;;;;2.33;1.42;;;3.00;99.90;;;;;;5044286;28;20262;-47
2024/01/16 12:58:19;;;;;;;4.22;1.33;;;3.00;99.90;;;;;;5049834;28;20192;-47
2024/01/16 13:00:52;;;;;;;1.95;1.02;;;3.00;99.90;;;;;;5049671;28;20217;-46
2024/01/16 13:03:22;;;;;;;2.80;1.52;;;3.00;99.90;;;;;;5048858;28;20204;-48
2024/01/16 13:05:56;;;;;;;2.63;1.23;;;3.00;99.90;;;;;;5047664;28;20208;-46
2024/01/16 13:08:25;;;;;;;3.55;1.60;;;3.00;99.90;;;;;;5043944;28;20535;-44
2024/01/16 13:11:04;;;;;;;3.03;1.48;;;3.00;99.90;;;;;;5043923;28;20311;-46
2024/01/16 13:13:34;;;;;;;2.38;1.60;;;3.00;99.90;;;;;;5042664;28;20234;-50
2024/01/16 13:16:05;;;;;;;3.05;1.48;;;3.00;99.90;;;;;;5047869;28;21441;-44
2024/01/16 13:18:33;;;;;;;1.70;1.38;;;3.00;99.90;;;;;;5050283;28;20684;-44
2024/01/16 13:21:02;;;;;;;3.53;1.60;;;3.00;99.90;;;;;;5049611;28;20732;-46
2024/01/16 13:23:33;;;;;;;2.60;1.08;;;3.00;99.90;;;;;;5051110;28;20649;-46
2024/01/16 13:26:04;;;;;;;3.10;1.40;;;3.00;99.90;;;;;;5051778;28;20224;-45
2024/01/16 13:28:33;;;;;;;1.75;1.02;;;3.00;99.90;;;;;;5051161;28;20204;-45
2024/01/16 13:31:03;;;;;;;2.88;1.30;;;3.00;99.90;;;;;;5050137;28;20224;-45
2024/01/16 13:33:32;;;;;;;1.85;1.30;;;3.00;99.90;;;;;;5048753;28;20197;-50
2024/01/16 13:36:00;;;;;;;4.28;1.20;;;3.00;99.90;;;;;;5050729;28;20311;-45
2024/01/16 13:38:28;;;;;;;2.40;1.50;;;3.00;99.90;;;;;;5052009;28;20662;-43
2024/01/16 13:40:57;;;;;;;3.15;1.35;;;3.00;99.90;;;;;;5050240;28;20336;-47
2024/01/16 13:43:26;;;;;;;2.33;1.40;;;3.00;99.90;;;;;;5050694;28;20212;-46
2024/01/16 13:45:56;;;;;;;3.72;2.05;;;3.00;99.90;;;;;;5049168;28;20297;-46
2024/01/16 13:48:24;;;;;;;2.90;1.35;;;2.90;99.90;;;;;;5064550;28;20192;-46
2024/01/16 13:50:54;;;;;;;3.33;1.50;;;3.00;99.90;;;;;;5063293;28;20229;-47
2024/01/16 13:53:23;;;;;;;3.30;1.13;;;3.00;99.90;;;;;;5026948;28;20244;-46
2024/01/16 13:55:52;;;;;;;2.38;1.30;;;3.00;99.90;;;;;;5043706;28;20689;-46
2024/01/16 13:58:20;;;;;;;1.45;0.90;;;3.00;99.90;;;;;;5045336;28;20666;-45
2024/01/16 14:00:48;;;;;;;4.80;1.52;;;3.00;99.90;;;;;;5048582;28;20694;-47
2024/01/16 14:03:19;;;;;;;2.00;1.33;;;3.00;99.90;;;;;;5047784;28;20251;-47
2024/01/16 14:05:47;;;;;;;2.88;1.23;;;3.00;99.90;;;;;;5047807;28;20204;-43
2024/01/16 14:08:15;;;;;;;2.00;1.30;;;3.00;99.90;;;;;;5047479;28;20204;-45
2024/01/16 14:15:36;;;;;;;1.65;1.02;;;3.00;99.90;;;;;;5000831;28;20411;-49
2024/01/16 14:18:04;;;;;;;2.75;1.55;;;3.00;99.90;;;;;;5043338;28;20609;-45
2024/01/16 14:20:37;;;;;;;2.00;1.10;;;3.00;99.90;;;;;;5046775;28;20295;-46
2024/01/16 14:23:06;;;;;;;3.00;1.70;;;3.00;99.90;;;;;;5041553;28;20201;-47
2024/01/16 14:25:34;;;;;;;2.75;1.58;;;3.00;99.90;;;;;;5049298;28;20196;-44
2024/01/16 14:28:03;;;;;;;2.13;1.50;;;3.00;99.90;;;;;;5049270;28;20220;-45
2024/01/16 14:30:35;;;;;;;2.35;1.58;;;3.00;99.90;;;;;;5048164;28;20199;-44
2024/01/16 14:33:06;;;;;;;4.90;2.38;;;3.00;99.90;;;;;;5040653;28;20863;-44
2024/01/16 14:35:35;;;;;;;3.97;2.00;;;3.00;99.70;;;;;;5047503;28;20204;-44
2024/01/16 14:38:05;;;;;;;3.15;1.60;;;3.00;99.70;;;;;;5049601;28;20200;-45
2024/01/16 14:40:34;;;;;;;3.15;1.65;;;3.00;99.70;;;;;;5047662;28;20200;-44